Los Angeles, California
Traffic Map
Current Weather Conditions
Los Angeles, California
Clear
Clear
67°
Feels Like: 67°
Wind Chill: 67° Ceiling: Unl
Heat Index: 67° Visibility: 10mi
Dew Point: 32° Wind: 0mph
Humidity: 27% Direction: ° ()
Pressure: 30.08in Gusts: 0mph
Raw Report DataKCQT 221147Z AUTO 00000KT 10SM CLR 19/00 A3008 RMK AO2 SLP184 T01940000 10194 20167 55003 $
Traffic Incident Summary
Active as of:
Severity:
Category:
InformationThere was an issue retrieving the traffic information for this location. Please try a different location or try again shortly.
Advertisements